sensor_id;sensor_type;location;lat;lon;timestamp;pressure;altitude;pressure_sealevel;temperature
70050;BMP180;57391;51.306;22.680;2023-09-19T00:01:00;99320.80;;;19.40
70050;BMP180;57391;51.306;22.680;2023-09-19T00:03:39;99314.00;;;19.40
70050;BMP180;57391;51.306;22.680;2023-09-19T00:06:06;99315.80;;;19.40
70050;BMP180;57391;51.306;22.680;2023-09-19T00:08:37;99311.40;;;19.40
70050;BMP180;57391;51.306;22.680;2023-09-19T00:11:03;99310.80;;;19.40
70050;BMP180;57391;51.306;22.680;2023-09-19T00:13:33;99306.20;;;19.40
70050;BMP180;57391;51.306;22.680;2023-09-19T00:16:00;99308.40;;;19.40
70050;BMP180;57391;51.306;22.680;2023-09-19T00:18:27;99305.60;;;19.40
70050;BMP180;57391;51.306;22.680;2023-09-19T00:20:59;99301.40;;;19.38
70050;BMP180;57391;51.306;22.680;2023-09-19T00:23:26;99303.40;;;19.34
70050;BMP180;57391;51.306;22.680;2023-09-19T00:25:54;99297.60;;;19.30
70050;BMP180;57391;51.306;22.680;2023-09-19T00:28:24;99291.80;;;19.30
70050;BMP180;57391;51.306;22.680;2023-09-19T00:30:53;99289.60;;;19.30
70050;BMP180;57391;51.306;22.680;2023-09-19T00:33:23;99289.00;;;19.30
70050;BMP180;57391;51.306;22.680;2023-09-19T00:35:53;99284.20;;;19.30
70050;BMP180;57391;51.306;22.680;2023-09-19T00:38:21;99288.20;;;19.30
70050;BMP180;57391;51.306;22.680;2023-09-19T00:40:50;99285.00;;;19.30
70050;BMP180;57391;51.306;22.680;2023-09-19T00:43:17;99286.80;;;19.30
70050;BMP180;57391;51.306;22.680;2023-09-19T00:45:48;99283.60;;;19.30
70050;BMP180;57391;51.306;22.680;2023-09-19T00:48:20;99282.20;;;19.30
70050;BMP180;57391;51.306;22.680;2023-09-19T00:50:49;99281.20;;;19.24
70050;BMP180;57391;51.306;22.680;2023-09-19T00:53:20;99279.40;;;19.20
70050;BMP180;57391;51.306;22.680;2023-09-19T00:55:50;99270.60;;;19.20
70050;BMP180;57391;51.306;22.680;2023-09-19T00:58:18;99271.20;;;19.20
70050;BMP180;57391;51.306;22.680;2023-09-19T01:00:48;99266.80;;;19.10
70050;BMP180;57391;51.306;22.680;2023-09-19T01:03:17;99262.80;;;19.10
70050;BMP180;57391;51.306;22.680;2023-09-19T01:05:44;99262.40;;;19.10
70050;BMP180;57391;51.306;22.680;2023-09-19T01:08:12;99260.40;;;19.10
70050;BMP180;57391;51.306;22.680;2023-09-19T01:11:09;99260.20;;;19.08
70050;BMP180;57391;51.306;22.680;2023-09-19T01:14:19;99255.20;;;19.00
70050;BMP180;57391;51.306;22.680;2023-09-19T01:17:09;99254.80;;;19.00
70050;BMP180;57391;51.306;22.680;2023-09-19T01:20:11;99250.40;;;19.00
70050;BMP180;57391;51.306;22.680;2023-09-19T01:26:34;99244.00;;;18.90
70050;BMP180;57391;51.306;22.680;2023-09-19T01:29:44;99240.40;;;18.90
70050;BMP180;57391;51.306;22.680;2023-09-19T01:32:19;99237.20;;;18.90
70050;BMP180;57391;51.306;22.680;2023-09-19T01:34:55;99230.60;;;18.90
70050;BMP180;57391;51.306;22.680;2023-09-19T01:37:30;99226.40;;;18.80
70050;BMP180;57391;51.306;22.680;2023-09-19T01:40:07;99224.40;;;18.80
70050;BMP180;57391;51.306;22.680;2023-09-19T01:46:21;99214.80;;;18.80
70050;BMP180;57391;51.306;22.680;2023-09-19T01:49:31;99210.40;;;18.78
70050;BMP180;57391;51.306;22.680;2023-09-19T01:52:12;99206.80;;;18.70
70050;BMP180;57391;51.306;22.680;2023-09-19T01:54:56;99204.40;;;18.70
70050;BMP180;57391;51.306;22.680;2023-09-19T01:57:32;99202.60;;;18.70
70050;BMP180;57391;51.306;22.680;2023-09-19T02:00:10;99196.60;;;18.70
70050;BMP180;57391;51.306;22.680;2023-09-19T02:02:47;99193.60;;;18.62
70050;BMP180;57391;51.306;22.680;2023-09-19T02:05:23;99193.80;;;18.60
70050;BMP180;57391;51.306;22.680;2023-09-19T02:07:54;99193.80;;;18.60
70050;BMP180;57391;51.306;22.680;2023-09-19T02:10:22;99189.60;;;18.60
70050;BMP180;57391;51.306;22.680;2023-09-19T02:12:50;99193.40;;;18.60
70050;BMP180;57391;51.306;22.680;2023-09-19T02:15:18;99193.20;;;18.60
70050;BMP180;57391;51.306;22.680;2023-09-19T02:17:45;99186.60;;;18.52
70050;BMP180;57391;51.306;22.680;2023-09-19T02:20:13;99192.40;;;18.50
70050;BMP180;57391;51.306;22.680;2023-09-19T02:22:42;99188.40;;;18.50
70050;BMP180;57391;51.306;22.680;2023-09-19T02:25:09;99183.00;;;18.50
70050;BMP180;57391;51.306;22.680;2023-09-19T02:27:36;99178.40;;;18.50
70050;BMP180;57391;51.306;22.680;2023-09-19T02:30:05;99172.40;;;18.50
70050;BMP180;57391;51.306;22.680;2023-09-19T02:32:32;99171.40;;;18.50
70050;BMP180;57391;51.306;22.680;2023-09-19T02:35:03;99168.60;;;18.46
70050;BMP180;57391;51.306;22.680;2023-09-19T02:37:31;99166.00;;;18.40
70050;BMP180;57391;51.306;22.680;2023-09-19T02:39:59;99160.60;;;18.40
70050;BMP180;57391;51.306;22.680;2023-09-19T02:42:26;99158.40;;;18.40
70050;BMP180;57391;51.306;22.680;2023-09-19T02:44:53;99163.80;;;18.40
70050;BMP180;57391;51.306;22.680;2023-09-19T02:47:20;99162.00;;;18.40
70050;BMP180;57391;51.306;22.680;2023-09-19T02:49:47;99159.40;;;18.40
70050;BMP180;57391;51.306;22.680;2023-09-19T02:52:14;99157.20;;;18.40
70050;BMP180;57391;51.306;22.680;2023-09-19T02:54:41;99158.20;;;18.40
70050;BMP180;57391;51.306;22.680;2023-09-19T02:57:12;99154.40;;;18.40
70050;BMP180;57391;51.306;22.680;2023-09-19T02:59:40;99153.80;;;18.40
70050;BMP180;57391;51.306;22.680;2023-09-19T03:02:09;99151.60;;;18.40
70050;BMP180;57391;51.306;22.680;2023-09-19T03:04:36;99149.40;;;18.40
70050;BMP180;57391;51.306;22.680;2023-09-19T03:07:03;99142.20;;;18.40
70050;BMP180;57391;51.306;22.680;2023-09-19T03:09:31;99145.20;;;18.40
70050;BMP180;57391;51.306;22.680;2023-09-19T03:11:58;99144.20;;;18.40
70050;BMP180;57391;51.306;22.680;2023-09-19T03:14:26;99143.80;;;18.40
70050;BMP180;57391;51.306;22.680;2023-09-19T03:16:57;99137.40;;;18.40
70050;BMP180;57391;51.306;22.680;2023-09-19T03:19:24;99135.80;;;18.40
70050;BMP180;57391;51.306;22.680;2023-09-19T03:21:53;99135.40;;;18.40
70050;BMP180;57391;51.306;22.680;2023-09-19T03:24:20;99132.20;;;18.40
70050;BMP180;57391;51.306;22.680;2023-09-19T03:26:47;99127.00;;;18.48
70050;BMP180;57391;51.306;22.680;2023-09-19T03:29:15;99122.00;;;18.50
70050;BMP180;57391;51.306;22.680;2023-09-19T03:31:44;99120.20;;;18.50
70050;BMP180;57391;51.306;22.680;2023-09-19T03:34:13;99119.80;;;18.50
70050;BMP180;57391;51.306;22.680;2023-09-19T03:36:40;99118.80;;;18.50
70050;BMP180;57391;51.306;22.680;2023-09-19T03:39:08;99117.20;;;18.50
70050;BMP180;57391;51.306;22.680;2023-09-19T03:41:34;99113.60;;;18.58
70050;BMP180;57391;51.306;22.680;2023-09-19T03:44:03;99116.20;;;18.60
70050;BMP180;57391;51.306;22.680;2023-09-19T03:46:31;99113.20;;;18.60
70050;BMP180;57391;51.306;22.680;2023-09-19T03:48:59;99113.20;;;18.60
70050;BMP180;57391;51.306;22.680;2023-09-19T03:51:26;99113.00;;;18.70
70050;BMP180;57391;51.306;22.680;2023-09-19T03:53:53;99116.80;;;18.70
70050;BMP180;57391;51.306;22.680;2023-09-19T03:56:20;99112.20;;;18.70
70050;BMP180;57391;51.306;22.680;2023-09-19T03:58:48;99111.00;;;18.80
70050;BMP180;57391;51.306;22.680;2023-09-19T04:01:15;99110.40;;;18.80
70050;BMP180;57391;51.306;22.680;2023-09-19T04:03:44;99108.80;;;18.90
70050;BMP180;57391;51.306;22.680;2023-09-19T04:06:15;99108.20;;;18.90
70050;BMP180;57391;51.306;22.680;2023-09-19T04:08:43;99108.40;;;18.98
70050;BMP180;57391;51.306;22.680;2023-09-19T04:11:10;99108.60;;;19.00
70050;BMP180;57391;51.306;22.680;2023-09-19T04:13:37;99109.20;;;19.00
70050;BMP180;57391;51.306;22.680;2023-09-19T04:16:04;99108.40;;;19.02
70050;BMP180;57391;51.306;22.680;2023-09-19T04:18:32;99105.40;;;19.08
70050;BMP180;57391;51.306;22.680;2023-09-19T04:21:04;99099.00;;;19.10
70050;BMP180;57391;51.306;22.680;2023-09-19T04:23:33;99096.80;;;19.02
70050;BMP180;57391;51.306;22.680;2023-09-19T04:25:59;99093.60;;;19.00
70050;BMP180;57391;51.306;22.680;2023-09-19T04:28:27;99090.60;;;19.00
70050;BMP180;57391;51.306;22.680;2023-09-19T04:30:56;99088.40;;;19.00
70050;BMP180;57391;51.306;22.680;2023-09-19T04:33:25;99091.60;;;19.00
70050;BMP180;57391;51.306;22.680;2023-09-19T04:35:53;99086.80;;;19.00
70050;BMP180;57391;51.306;22.680;2023-09-19T04:38:20;99086.80;;;19.00
70050;BMP180;57391;51.306;22.680;2023-09-19T04:40:48;99086.20;;;19.04
70050;BMP180;57391;51.306;22.680;2023-09-19T04:43:14;99083.00;;;19.02
70050;BMP180;57391;51.306;22.680;2023-09-19T04:45:42;99078.40;;;19.06
70050;BMP180;57391;51.306;22.680;2023-09-19T04:48:09;99086.00;;;19.08
70050;BMP180;57391;51.306;22.680;2023-09-19T04:50:37;99079.20;;;19.06
70050;BMP180;57391;51.306;22.680;2023-09-19T04:53:05;99077.00;;;19.10
70050;BMP180;57391;51.306;22.680;2023-09-19T04:55:33;99076.60;;;19.10
70050;BMP180;57391;51.306;22.680;2023-09-19T04:58:00;99075.40;;;19.10
70050;BMP180;57391;51.306;22.680;2023-09-19T05:00:27;99076.00;;;19.10
70050;BMP180;57391;51.306;22.680;2023-09-19T05:02:57;99074.40;;;19.10
70050;BMP180;57391;51.306;22.680;2023-09-19T05:05:24;99072.20;;;19.10
70050;BMP180;57391;51.306;22.680;2023-09-19T05:07:53;99073.80;;;19.10
70050;BMP180;57391;51.306;22.680;2023-09-19T05:10:22;99074.00;;;19.10
70050;BMP180;57391;51.306;22.680;2023-09-19T05:12:53;99071.80;;;19.20
70050;BMP180;57391;51.306;22.680;2023-09-19T05:15:20;99068.60;;;19.30
70050;BMP180;57391;51.306;22.680;2023-09-19T05:17:52;99065.80;;;19.40
70050;BMP180;57391;51.306;22.680;2023-09-19T05:20:22;99058.40;;;19.70
70050;BMP180;57391;51.306;22.680;2023-09-19T05:23:06;99060.00;;;20.10
70050;BMP180;57391;51.306;22.680;2023-09-19T05:25:40;99057.80;;;20.30
70050;BMP180;57391;51.306;22.680;2023-09-19T05:28:10;99057.00;;;20.40
70050;BMP180;57391;51.306;22.680;2023-09-19T05:30:38;99054.20;;;20.50
70050;BMP180;57391;51.306;22.680;2023-09-19T05:33:05;99058.00;;;20.70
70050;BMP180;57391;51.306;22.680;2023-09-19T05:35:32;99055.40;;;20.80
70050;BMP180;57391;51.306;22.680;2023-09-19T05:38:00;99053.60;;;20.90
70050;BMP180;57391;51.306;22.680;2023-09-19T05:40:27;99050.60;;;21.00
70050;BMP180;57391;51.306;22.680;2023-09-19T05:42:54;99053.80;;;21.10
70050;BMP180;57391;51.306;22.680;2023-09-19T05:45:21;99056.40;;;21.10
70050;BMP180;57391;51.306;22.680;2023-09-19T05:47:52;99057.20;;;21.20
70050;BMP180;57391;51.306;22.680;2023-09-19T05:50:22;99059.40;;;21.30
70050;BMP180;57391;51.306;22.680;2023-09-19T05:52:52;99054.20;;;21.40
70050;BMP180;57391;51.306;22.680;2023-09-19T05:55:19;99050.00;;;21.48
70050;BMP180;57391;51.306;22.680;2023-09-19T05:57:53;99057.20;;;21.60
70050;BMP180;57391;51.306;22.680;2023-09-19T06:00:22;99050.80;;;21.70
70050;BMP180;57391;51.306;22.680;2023-09-19T06:02:55;99049.80;;;21.80
70050;BMP180;57391;51.306;22.680;2023-09-19T06:05:26;99055.20;;;21.90
70050;BMP180;57391;51.306;22.680;2023-09-19T06:07:54;99051.00;;;22.00
70050;BMP180;57391;51.306;22.680;2023-09-19T06:10:21;99048.80;;;22.10
70050;BMP180;57391;51.306;22.680;2023-09-19T06:12:50;99052.00;;;22.20
70050;BMP180;57391;51.306;22.680;2023-09-19T06:15:17;99055.00;;;22.26
70050;BMP180;57391;51.306;22.680;2023-09-19T06:17:54;99050.80;;;22.30
70050;BMP180;57391;51.306;22.680;2023-09-19T06:20:26;99049.20;;;22.40
70050;BMP180;57391;51.306;22.680;2023-09-19T06:22:54;99054.00;;;22.60
70050;BMP180;57391;51.306;22.680;2023-09-19T06:25:21;99063.20;;;22.70
70050;BMP180;57391;51.306;22.680;2023-09-19T06:27:50;99061.00;;;22.80
70050;BMP180;57391;51.306;22.680;2023-09-19T06:30:23;99052.80;;;22.94
70050;BMP180;57391;51.306;22.680;2023-09-19T06:32:58;99061.40;;;23.10
70050;BMP180;57391;51.306;22.680;2023-09-19T06:35:26;99057.00;;;23.20
70050;BMP180;57391;51.306;22.680;2023-09-19T06:37:53;99055.20;;;23.30
70050;BMP180;57391;51.306;22.680;2023-09-19T06:40:20;99057.40;;;23.34
70050;BMP180;57391;51.306;22.680;2023-09-19T06:42:51;99059.00;;;23.34
70050;BMP180;57391;51.306;22.680;2023-09-19T06:45:19;99056.00;;;23.30
70050;BMP180;57391;51.306;22.680;2023-09-19T06:47:50;99059.60;;;23.30
70050;BMP180;57391;51.306;22.680;2023-09-19T06:50:19;99057.60;;;23.32
70050;BMP180;57391;51.306;22.680;2023-09-19T06:52:50;99068.80;;;23.32
70050;BMP180;57391;51.306;22.680;2023-09-19T06:55:20;99063.80;;;23.30
70050;BMP180;57391;51.306;22.680;2023-09-19T06:57:48;99066.40;;;23.20
70050;BMP180;57391;51.306;22.680;2023-09-19T07:00:16;99070.60;;;23.20
70050;BMP180;57391;51.306;22.680;2023-09-19T07:02:54;99077.00;;;23.10
70050;BMP180;57391;51.306;22.680;2023-09-19T07:05:21;99076.80;;;23.10
70050;BMP180;57391;51.306;22.680;2023-09-19T07:07:48;99081.20;;;23.00
70050;BMP180;57391;51.306;22.680;2023-09-19T07:10:15;99081.20;;;22.90
70050;BMP180;57391;51.306;22.680;2023-09-19T07:12:42;99080.40;;;22.80
70050;BMP180;57391;51.306;22.680;2023-09-19T07:15:09;99082.60;;;22.76
70050;BMP180;57391;51.306;22.680;2023-09-19T07:17:36;99082.80;;;22.70
70050;BMP180;57391;51.306;22.680;2023-09-19T07:20:04;99078.60;;;22.70
70050;BMP180;57391;51.306;22.680;2023-09-19T07:22:34;99089.00;;;22.60
70050;BMP180;57391;51.306;22.680;2023-09-19T07:25:01;99099.60;;;22.60
70050;BMP180;57391;51.306;22.680;2023-09-19T07:27:28;99093.60;;;22.50
70050;BMP180;57391;51.306;22.680;2023-09-19T07:29:55;99091.80;;;22.42
70050;BMP180;57391;51.306;22.680;2023-09-19T07:32:22;99095.00;;;22.40
70050;BMP180;57391;51.306;22.680;2023-09-19T07:34:50;99096.40;;;22.40
70050;BMP180;57391;51.306;22.680;2023-09-19T07:37:16;99101.80;;;22.30
70050;BMP180;57391;51.306;22.680;2023-09-19T07:39:45;99106.20;;;22.30
70050;BMP180;57391;51.306;22.680;2023-09-19T07:42:12;99107.80;;;22.30
70050;BMP180;57391;51.306;22.680;2023-09-19T07:44:44;99105.00;;;22.20
70050;BMP180;57391;51.306;22.680;2023-09-19T07:47:14;99107.20;;;22.20
70050;BMP180;57391;51.306;22.680;2023-09-19T07:49:41;99109.00;;;22.10
70050;BMP180;57391;51.306;22.680;2023-09-19T07:52:11;99108.40;;;22.10
70050;BMP180;57391;51.306;22.680;2023-09-19T07:54:39;99107.40;;;22.00
70050;BMP180;57391;51.306;22.680;2023-09-19T07:57:11;99109.40;;;21.98
70050;BMP180;57391;51.306;22.680;2023-09-19T07:59:38;99105.80;;;21.90
70050;BMP180;57391;51.306;22.680;2023-09-19T08:02:05;99104.40;;;21.90
70050;BMP180;57391;51.306;22.680;2023-09-19T08:04:32;99107.40;;;21.84
70050;BMP180;57391;51.306;22.680;2023-09-19T08:07:00;99107.80;;;21.80
70050;BMP180;57391;51.306;22.680;2023-09-19T08:09:27;99109.80;;;21.80
70050;BMP180;57391;51.306;22.680;2023-09-19T08:11:54;99110.40;;;21.76
70050;BMP180;57391;51.306;22.680;2023-09-19T08:14:21;99118.00;;;21.70
70050;BMP180;57391;51.306;22.680;2023-09-19T08:16:49;99112.20;;;21.70
70050;BMP180;57391;51.306;22.680;2023-09-19T08:19:16;99111.40;;;21.70
70050;BMP180;57391;51.306;22.680;2023-09-19T08:21:43;99116.80;;;21.70
70050;BMP180;57391;51.306;22.680;2023-09-19T08:24:13;99112.40;;;21.60
70050;BMP180;57391;51.306;22.680;2023-09-19T08:26:41;99113.20;;;21.60
70050;BMP180;57391;51.306;22.680;2023-09-19T08:29:08;99113.40;;;21.60
70050;BMP180;57391;51.306;22.680;2023-09-19T08:31:38;99108.80;;;21.60
70050;BMP180;57391;51.306;22.680;2023-09-19T08:34:05;99110.40;;;21.60
70050;BMP180;57391;51.306;22.680;2023-09-19T08:36:32;99114.60;;;21.56
70050;BMP180;57391;51.306;22.680;2023-09-19T08:38:59;99110.00;;;21.50
70050;BMP180;57391;51.306;22.680;2023-09-19T08:41:26;99109.00;;;21.50
70050;BMP180;57391;51.306;22.680;2023-09-19T08:43:52;99110.40;;;21.50
70050;BMP180;57391;51.306;22.680;2023-09-19T08:46:24;99112.00;;;21.50
70050;BMP180;57391;51.306;22.680;2023-09-19T08:49:04;99113.20;;;21.50
70050;BMP180;57391;51.306;22.680;2023-09-19T08:51:42;99111.60;;;21.50
70050;BMP180;57391;51.306;22.680;2023-09-19T08:54:37;99113.40;;;21.42
70050;BMP180;57391;51.306;22.680;2023-09-19T08:57:08;99110.80;;;21.40
70050;BMP180;57391;51.306;22.680;2023-09-19T08:59:38;99110.60;;;21.30
70050;BMP180;57391;51.306;22.680;2023-09-19T09:02:14;99112.40;;;21.30
70050;BMP180;57391;51.306;22.680;2023-09-19T09:04:43;99114.60;;;21.30
70050;BMP180;57391;51.306;22.680;2023-09-19T09:07:12;99116.20;;;21.30
70050;BMP180;57391;51.306;22.680;2023-09-19T09:09:40;99111.60;;;21.20
70050;BMP180;57391;51.306;22.680;2023-09-19T09:12:13;99115.00;;;21.20
70050;BMP180;57391;51.306;22.680;2023-09-19T09:14:44;99108.40;;;21.16
70050;BMP180;57391;51.306;22.680;2023-09-19T09:17:12;99108.00;;;21.10
70050;BMP180;57391;51.306;22.680;2023-09-19T09:19:38;99115.00;;;21.10
70050;BMP180;57391;51.306;22.680;2023-09-19T09:22:07;99112.40;;;21.10
70050;BMP180;57391;51.306;22.680;2023-09-19T09:24:35;99112.60;;;21.10
70050;BMP180;57391;51.306;22.680;2023-09-19T09:27:06;99109.60;;;21.10
70050;BMP180;57391;51.306;22.680;2023-09-19T09:29:50;99110.20;;;21.02
70050;BMP180;57391;51.306;22.680;2023-09-19T09:34:54;99113.80;;;21.00
70050;BMP180;57391;51.306;22.680;2023-09-19T09:37:22;99114.60;;;20.96
70050;BMP180;57391;51.306;22.680;2023-09-19T09:39:56;99110.40;;;20.90
70050;BMP180;57391;51.306;22.680;2023-09-19T09:42:35;99116.80;;;20.90
70050;BMP180;57391;51.306;22.680;2023-09-19T09:45:22;99113.20;;;20.96
70050;BMP180;57391;51.306;22.680;2023-09-19T09:48:01;99115.00;;;21.00
70050;BMP180;57391;51.306;22.680;2023-09-19T09:50:48;99116.40;;;21.00
70050;BMP180;57391;51.306;22.680;2023-09-19T09:53:28;99114.80;;;21.00
70050;BMP180;57391;51.306;22.680;2023-09-19T09:56:04;99118.00;;;21.10
70050;BMP180;57391;51.306;22.680;2023-09-19T09:58:52;99117.20;;;21.10
70050;BMP180;57391;51.306;22.680;2023-09-19T10:01:25;99114.20;;;21.10
70050;BMP180;57391;51.306;22.680;2023-09-19T10:03:59;99115.20;;;21.16
70050;BMP180;57391;51.306;22.680;2023-09-19T10:06:40;99114.40;;;21.20
70050;BMP180;57391;51.306;22.680;2023-09-19T10:09:13;99112.40;;;21.20
70050;BMP180;57391;51.306;22.680;2023-09-19T10:11:46;99111.80;;;21.20
70050;BMP180;57391;51.306;22.680;2023-09-19T10:14:18;99110.80;;;21.20
70050;BMP180;57391;51.306;22.680;2023-09-19T10:16:53;99108.60;;;21.20
70050;BMP180;57391;51.306;22.680;2023-09-19T10:19:37;99106.20;;;21.20
70050;BMP180;57391;51.306;22.680;2023-09-19T10:22:05;99105.60;;;21.20
70050;BMP180;57391;51.306;22.680;2023-09-19T10:24:36;99105.60;;;21.20
70050;BMP180;57391;51.306;22.680;2023-09-19T10:27:06;99106.00;;;21.20
70050;BMP180;57391;51.306;22.680;2023-09-19T10:29:39;99102.20;;;21.20
70050;BMP180;57391;51.306;22.680;2023-09-19T10:32:07;99097.00;;;21.20
70050;BMP180;57391;51.306;22.680;2023-09-19T10:34:36;99090.40;;;21.20
70050;BMP180;57391;51.306;22.680;2023-09-19T10:37:05;99092.60;;;21.30
70050;BMP180;57391;51.306;22.680;2023-09-19T10:39:32;99089.80;;;21.30
70050;BMP180;57391;51.306;22.680;2023-09-19T10:42:02;99093.20;;;21.30
70050;BMP180;57391;51.306;22.680;2023-09-19T10:44:33;99094.20;;;21.30
70050;BMP180;57391;51.306;22.680;2023-09-19T10:47:00;99093.20;;;21.30
70050;BMP180;57391;51.306;22.680;2023-09-19T10:49:27;99090.80;;;21.30
70050;BMP180;57391;51.306;22.680;2023-09-19T10:51:57;99094.40;;;21.30
70050;BMP180;57391;51.306;22.680;2023-09-19T10:54:35;99096.00;;;21.30
70050;BMP180;57391;51.306;22.680;2023-09-19T10:57:04;99090.40;;;21.30
70050;BMP180;57391;51.306;22.680;2023-09-19T10:59:32;99093.00;;;21.30
70050;BMP180;57391;51.306;22.680;2023-09-19T11:02:17;99091.20;;;21.30
70050;BMP180;57391;51.306;22.680;2023-09-19T11:04:44;99088.40;;;21.30
70050;BMP180;57391;51.306;22.680;2023-09-19T11:07:15;99087.60;;;21.20
70050;BMP180;57391;51.306;22.680;2023-09-19T11:15:03;99089.20;;;21.10
70050;BMP180;57391;51.306;22.680;2023-09-19T11:17:41;99083.00;;;21.10
70050;BMP180;57391;51.306;22.680;2023-09-19T11:28:27;99074.40;;;20.94
70050;BMP180;57391;51.306;22.680;2023-09-19T11:30:54;99079.40;;;20.90
70050;BMP180;57391;51.306;22.680;2023-09-19T11:33:31;99093.20;;;20.90
70050;BMP180;57391;51.306;22.680;2023-09-19T11:36:10;99090.60;;;20.78
70050;BMP180;57391;51.306;22.680;2023-09-19T11:43:51;99099.80;;;20.20
70050;BMP180;57391;51.306;22.680;2023-09-19T11:46:18;99095.40;;;20.10
70050;BMP180;57391;51.306;22.680;2023-09-19T11:48:50;99095.80;;;19.90
70050;BMP180;57391;51.306;22.680;2023-09-19T11:51:20;99106.20;;;19.80
70050;BMP180;57391;51.306;22.680;2023-09-19T12:02:18;99103.60;;;19.42
70050;BMP180;57391;51.306;22.680;2023-09-19T12:04:55;99102.40;;;19.40
70050;BMP180;57391;51.306;22.680;2023-09-19T12:07:22;99104.60;;;19.40
70050;BMP180;57391;51.306;22.680;2023-09-19T12:10:20;99103.00;;;19.30
70050;BMP180;57391;51.306;22.680;2023-09-19T12:12:49;99099.60;;;19.30
70050;BMP180;57391;51.306;22.680;2023-09-19T12:15:23;99097.20;;;19.30
70050;BMP180;57391;51.306;22.680;2023-09-19T12:17:55;99102.80;;;19.30
70050;BMP180;57391;51.306;22.680;2023-09-19T12:20:22;99101.80;;;19.24
70050;BMP180;57391;51.306;22.680;2023-09-19T12:22:50;99103.60;;;19.30
70050;BMP180;57391;51.306;22.680;2023-09-19T12:25:16;99100.40;;;19.20
70050;BMP180;57391;51.306;22.680;2023-09-19T12:27:47;99103.40;;;19.20
70050;BMP180;57391;51.306;22.680;2023-09-19T12:30:16;99101.60;;;19.20
70050;BMP180;57391;51.306;22.680;2023-09-19T12:32:45;99104.40;;;19.20
70050;BMP180;57391;51.306;22.680;2023-09-19T12:35:31;99101.80;;;19.20
70050;BMP180;57391;51.306;22.680;2023-09-19T12:38:05;99099.60;;;19.20
70050;BMP180;57391;51.306;22.680;2023-09-19T12:40:33;99096.60;;;19.20
70050;BMP180;57391;51.306;22.680;2023-09-19T12:43:03;99101.80;;;19.20
70050;BMP180;57391;51.306;22.680;2023-09-19T12:45:32;99100.00;;;19.20
70050;BMP180;57391;51.306;22.680;2023-09-19T12:48:24;99102.40;;;19.20
70050;BMP180;57391;51.306;22.680;2023-09-19T12:51:08;99101.00;;;19.20
70050;BMP180;57391;51.306;22.680;2023-09-19T12:53:41;99098.60;;;19.20
70050;BMP180;57391;51.306;22.680;2023-09-19T12:56:11;99098.20;;;19.20
70050;BMP180;57391;51.306;22.680;2023-09-19T12:58:57;99099.00;;;19.20
70050;BMP180;57391;51.306;22.680;2023-09-19T13:01:29;99096.60;;;19.20
70050;BMP180;57391;51.306;22.680;2023-09-19T13:06:47;99096.00;;;19.20
70050;BMP180;57391;51.306;22.680;2023-09-19T13:09:17;99096.20;;;19.20
70050;BMP180;57391;51.306;22.680;2023-09-19T13:11:44;99096.80;;;19.20
70050;BMP180;57391;51.306;22.680;2023-09-19T13:14:30;99096.00;;;19.20
70050;BMP180;57391;51.306;22.680;2023-09-19T13:17:10;99097.80;;;19.20
70050;BMP180;57391;51.306;22.680;2023-09-19T13:19:51;99094.40;;;19.20
70050;BMP180;57391;51.306;22.680;2023-09-19T13:22:41;99093.20;;;19.30
70050;BMP180;57391;51.306;22.680;2023-09-19T13:25:15;99091.20;;;19.30
70050;BMP180;57391;51.306;22.680;2023-09-19T13:27:48;99092.60;;;19.30
70050;BMP180;57391;51.306;22.680;2023-09-19T13:30:19;99091.00;;;19.36
70050;BMP180;57391;51.306;22.680;2023-09-19T13:32:47;99086.80;;;19.40
70050;BMP180;57391;51.306;22.680;2023-09-19T13:35:15;99091.80;;;19.40
70050;BMP180;57391;51.306;22.680;2023-09-19T13:37:43;99091.40;;;19.50
70050;BMP180;57391;51.306;22.680;2023-09-19T13:40:15;99091.40;;;19.50
70050;BMP180;57391;51.306;22.680;2023-09-19T13:42:43;99090.60;;;19.50
70050;BMP180;57391;51.306;22.680;2023-09-19T13:45:10;99091.40;;;19.50
70050;BMP180;57391;51.306;22.680;2023-09-19T13:47:40;99090.00;;;19.50
70050;BMP180;57391;51.306;22.680;2023-09-19T13:50:07;99086.60;;;19.54
70050;BMP180;57391;51.306;22.680;2023-09-19T13:52:34;99088.40;;;19.60
70050;BMP180;57391;51.306;22.680;2023-09-19T13:55:01;99087.00;;;19.60
70050;BMP180;57391;51.306;22.680;2023-09-19T13:57:28;99083.80;;;19.60
70050;BMP180;57391;51.306;22.680;2023-09-19T13:59:56;99082.80;;;19.60
70050;BMP180;57391;51.306;22.680;2023-09-19T14:02:23;99085.00;;;19.64
70050;BMP180;57391;51.306;22.680;2023-09-19T14:04:54;99083.60;;;19.70
70050;BMP180;57391;51.306;22.680;2023-09-19T14:07:21;99084.60;;;19.70
70050;BMP180;57391;51.306;22.680;2023-09-19T14:09:48;99085.40;;;19.70
70050;BMP180;57391;51.306;22.680;2023-09-19T14:12:15;99082.60;;;19.70
70050;BMP180;57391;51.306;22.680;2023-09-19T14:14:42;99085.20;;;19.70
70050;BMP180;57391;51.306;22.680;2023-09-19T14:17:09;99088.40;;;19.70
70050;BMP180;57391;51.306;22.680;2023-09-19T14:19:36;99087.80;;;19.70
70050;BMP180;57391;51.306;22.680;2023-09-19T14:22:04;99093.60;;;19.70
70050;BMP180;57391;51.306;22.680;2023-09-19T14:24:34;99091.00;;;19.70
70050;BMP180;57391;51.306;22.680;2023-09-19T14:27:01;99091.40;;;19.70
70050;BMP180;57391;51.306;22.680;2023-09-19T14:29:31;99093.40;;;19.70
70050;BMP180;57391;51.306;22.680;2023-09-19T14:31:58;99092.80;;;19.70
70050;BMP180;57391;51.306;22.680;2023-09-19T14:34:24;99091.40;;;19.70
70050;BMP180;57391;51.306;22.680;2023-09-19T14:36:51;99092.20;;;19.70
70050;BMP180;57391;51.306;22.680;2023-09-19T14:39:18;99092.00;;;19.70
70050;BMP180;57391;51.306;22.680;2023-09-19T14:41:46;99090.20;;;19.70
70050;BMP180;57391;51.306;22.680;2023-09-19T14:44:13;99093.60;;;19.70
70050;BMP180;57391;51.306;22.680;2023-09-19T14:46:42;99095.60;;;19.70
70050;BMP180;57391;51.306;22.680;2023-09-19T14:49:12;99097.20;;;19.70
70050;BMP180;57391;51.306;22.680;2023-09-19T14:51:39;99098.40;;;19.70
70050;BMP180;57391;51.306;22.680;2023-09-19T14:54:06;99097.60;;;19.70
70050;BMP180;57391;51.306;22.680;2023-09-19T14:56:34;99098.80;;;19.70